sensor_id;sensor_type;location;lat;lon;timestamp;P1;durP1;ratioP1;P2;durP2;ratioP2
52972;SDS011;38837;48.916;2.336;2024-02-14T00:03:25;5.38;;;1.90;;
52972;SDS011;38837;48.916;2.336;2024-02-14T00:05:28;3.22;;;2.00;;
52972;SDS011;38837;48.916;2.336;2024-02-14T00:07:30;5.50;;;1.40;;
52972;SDS011;38837;48.916;2.336;2024-02-14T00:09:32;5.53;;;1.63;;
52972;SDS011;38837;48.916;2.336;2024-02-14T00:11:34;2.63;;;1.50;;
52972;SDS011;38837;48.916;2.336;2024-02-14T00:13:35;2.92;;;1.40;;
52972;SDS011;38837;48.916;2.336;2024-02-14T00:15:37;3.38;;;1.55;;
52972;SDS011;38837;48.916;2.336;2024-02-14T00:17:40;2.45;;;1.27;;
52972;SDS011;38837;48.916;2.336;2024-02-14T00:19:42;3.45;;;1.30;;
52972;SDS011;38837;48.916;2.336;2024-02-14T00:21:44;4.35;;;1.23;;
52972;SDS011;38837;48.916;2.336;2024-02-14T00:23:46;6.05;;;1.75;;
52972;SDS011;38837;48.916;2.336;2024-02-14T00:25:48;2.88;;;1.33;;
52972;SDS011;38837;48.916;2.336;2024-02-14T00:27:50;3.08;;;1.80;;
52972;SDS011;38837;48.916;2.336;2024-02-14T00:29:52;2.67;;;1.60;;
52972;SDS011;38837;48.916;2.336;2024-02-14T00:31:55;2.80;;;1.33;;
52972;SDS011;38837;48.916;2.336;2024-02-14T00:33:57;5.57;;;2.00;;
52972;SDS011;38837;48.916;2.336;2024-02-14T00:35:59;2.22;;;1.65;;
52972;SDS011;38837;48.916;2.336;2024-02-14T00:38:01;4.65;;;1.42;;
52972;SDS011;38837;48.916;2.336;2024-02-14T00:40:03;2.17;;;1.30;;
52972;SDS011;38837;48.916;2.336;2024-02-14T00:42:05;1.27;;;1.10;;
52972;SDS011;38837;48.916;2.336;2024-02-14T00:44:07;3.55;;;1.50;;
52972;SDS011;38837;48.916;2.336;2024-02-14T00:46:14;2.45;;;1.58;;
52972;SDS011;38837;48.916;2.336;2024-02-14T00:48:17;2.72;;;1.50;;
52972;SDS011;38837;48.916;2.336;2024-02-14T00:50:19;2.75;;;1.58;;
52972;SDS011;38837;48.916;2.336;2024-02-14T00:52:21;3.50;;;1.42;;
52972;SDS011;38837;48.916;2.336;2024-02-14T00:54:23;2.83;;;1.20;;
52972;SDS011;38837;48.916;2.336;2024-02-14T00:56:25;3.92;;;1.60;;
52972;SDS011;38837;48.916;2.336;2024-02-14T00:58:27;1.90;;;1.33;;
52972;SDS011;38837;48.916;2.336;2024-02-14T01:00:29;3.08;;;1.42;;
52972;SDS011;38837;48.916;2.336;2024-02-14T01:02:35;2.28;;;1.40;;
52972;SDS011;38837;48.916;2.336;2024-02-14T01:04:37;3.38;;;1.40;;
52972;SDS011;38837;48.916;2.336;2024-02-14T01:06:39;4.78;;;1.67;;
52972;SDS011;38837;48.916;2.336;2024-02-14T01:08:41;2.55;;;1.50;;
52972;SDS011;38837;48.916;2.336;2024-02-14T01:10:43;2.97;;;1.30;;
52972;SDS011;38837;48.916;2.336;2024-02-14T01:12:48;2.63;;;1.50;;
52972;SDS011;38837;48.916;2.336;2024-02-14T01:14:50;2.95;;;1.35;;
52972;SDS011;38837;48.916;2.336;2024-02-14T01:16:52;1.67;;;1.20;;
52972;SDS011;38837;48.916;2.336;2024-02-14T01:18:55;1.00;;;0.90;;
52972;SDS011;38837;48.916;2.336;2024-02-14T01:20:58;1.20;;;0.95;;
52972;SDS011;38837;48.916;2.336;2024-02-14T01:23:01;1.77;;;1.38;;
52972;SDS011;38837;48.916;2.336;2024-02-14T01:25:03;3.10;;;1.50;;
52972;SDS011;38837;48.916;2.336;2024-02-14T01:27:06;2.40;;;1.42;;
52972;SDS011;38837;48.916;2.336;2024-02-14T01:29:09;2.90;;;1.92;;
52972;SDS011;38837;48.916;2.336;2024-02-14T01:31:11;2.22;;;1.25;;
52972;SDS011;38837;48.916;2.336;2024-02-14T01:33:13;2.28;;;1.40;;
52972;SDS011;38837;48.916;2.336;2024-02-14T01:35:17;1.52;;;1.20;;
52972;SDS011;38837;48.916;2.336;2024-02-14T01:37:19;3.08;;;1.38;;
52972;SDS011;38837;48.916;2.336;2024-02-14T01:39:22;1.70;;;1.05;;
52972;SDS011;38837;48.916;2.336;2024-02-14T01:41:24;3.47;;;1.40;;
52972;SDS011;38837;48.916;2.336;2024-02-14T01:43:26;2.03;;;1.20;;
52972;SDS011;38837;48.916;2.336;2024-02-14T01:45:28;3.10;;;1.40;;
52972;SDS011;38837;48.916;2.336;2024-02-14T01:47:30;3.63;;;1.30;;
52972;SDS011;38837;48.916;2.336;2024-02-14T01:49:34;2.28;;;1.27;;
52972;SDS011;38837;48.916;2.336;2024-02-14T01:51:37;4.63;;;1.55;;
52972;SDS011;38837;48.916;2.336;2024-02-14T01:53:43;3.78;;;1.58;;
52972;SDS011;38837;48.916;2.336;2024-02-14T01:55:45;1.77;;;1.05;;
52972;SDS011;38837;48.916;2.336;2024-02-14T01:57:47;2.95;;;1.30;;
52972;SDS011;38837;48.916;2.336;2024-02-14T01:59:49;2.97;;;1.40;;
52972;SDS011;38837;48.916;2.336;2024-02-14T02:01:54;1.90;;;1.45;;
52972;SDS011;38837;48.916;2.336;2024-02-14T02:03:56;2.88;;;1.60;;
52972;SDS011;38837;48.916;2.336;2024-02-14T02:06:00;2.13;;;1.30;;
52972;SDS011;38837;48.916;2.336;2024-02-14T02:08:02;4.22;;;1.33;;
52972;SDS011;38837;48.916;2.336;2024-02-14T02:10:05;2.47;;;1.38;;
52972;SDS011;38837;48.916;2.336;2024-02-14T02:12:07;2.17;;;1.25;;
52972;SDS011;38837;48.916;2.336;2024-02-14T02:14:10;2.83;;;1.27;;
52972;SDS011;38837;48.916;2.336;2024-02-14T02:16:13;1.77;;;1.20;;
52972;SDS011;38837;48.916;2.336;2024-02-14T02:18:16;2.75;;;1.40;;
52972;SDS011;38837;48.916;2.336;2024-02-14T02:20:18;2.78;;;1.40;;
52972;SDS011;38837;48.916;2.336;2024-02-14T02:22:20;3.13;;;1.60;;
52972;SDS011;38837;48.916;2.336;2024-02-14T02:24:22;1.38;;;1.10;;
52972;SDS011;38837;48.916;2.336;2024-02-14T02:26:24;2.38;;;1.08;;
52972;SDS011;38837;48.916;2.336;2024-02-14T02:28:26;1.83;;;1.35;;
52972;SDS011;38837;48.916;2.336;2024-02-14T02:30:28;4.15;;;1.55;;
52972;SDS011;38837;48.916;2.336;2024-02-14T02:32:31;3.80;;;1.40;;
52972;SDS011;38837;48.916;2.336;2024-02-14T02:34:33;3.03;;;1.50;;
52972;SDS011;38837;48.916;2.336;2024-02-14T02:36:35;2.70;;;1.50;;
52972;SDS011;38837;48.916;2.336;2024-02-14T02:38:39;1.70;;;1.30;;
52972;SDS011;38837;48.916;2.336;2024-02-14T02:40:40;2.40;;;1.05;;
52972;SDS011;38837;48.916;2.336;2024-02-14T02:42:42;2.50;;;1.38;;
52972;SDS011;38837;48.916;2.336;2024-02-14T02:44:46;1.77;;;1.10;;
52972;SDS011;38837;48.916;2.336;2024-02-14T02:46:49;3.25;;;1.58;;
52972;SDS011;38837;48.916;2.336;2024-02-14T02:48:51;2.20;;;1.27;;
52972;SDS011;38837;48.916;2.336;2024-02-14T02:50:56;3.17;;;1.58;;
52972;SDS011;38837;48.916;2.336;2024-02-14T02:52:58;4.55;;;1.80;;
52972;SDS011;38837;48.916;2.336;2024-02-14T02:55:00;2.42;;;1.55;;
52972;SDS011;38837;48.916;2.336;2024-02-14T02:57:03;2.80;;;1.20;;
52972;SDS011;38837;48.916;2.336;2024-02-14T02:59:05;2.70;;;1.40;;
52972;SDS011;38837;48.916;2.336;2024-02-14T03:01:07;2.17;;;1.48;;
52972;SDS011;38837;48.916;2.336;2024-02-14T03:03:10;2.40;;;1.42;;
52972;SDS011;38837;48.916;2.336;2024-02-14T03:05:12;2.58;;;1.77;;
52972;SDS011;38837;48.916;2.336;2024-02-14T03:07:21;1.65;;;1.27;;
52972;SDS011;38837;48.916;2.336;2024-02-14T03:09:25;2.90;;;1.55;;
52972;SDS011;38837;48.916;2.336;2024-02-14T03:11:28;2.78;;;1.60;;
52972;SDS011;38837;48.916;2.336;2024-02-14T03:13:30;1.92;;;1.30;;
52972;SDS011;38837;48.916;2.336;2024-02-14T03:15:32;2.85;;;1.20;;
52972;SDS011;38837;48.916;2.336;2024-02-14T03:17:34;4.30;;;1.65;;
52972;SDS011;38837;48.916;2.336;2024-02-14T03:19:37;3.22;;;1.42;;
52972;SDS011;38837;48.916;2.336;2024-02-14T03:21:41;1.25;;;0.90;;
52972;SDS011;38837;48.916;2.336;2024-02-14T03:23:44;2.70;;;1.50;;
52972;SDS011;38837;48.916;2.336;2024-02-14T03:25:47;3.63;;;1.45;;
52972;SDS011;38837;48.916;2.336;2024-02-14T03:27:49;4.30;;;1.40;;
52972;SDS011;38837;48.916;2.336;2024-02-14T03:29:54;1.42;;;1.30;;
52972;SDS011;38837;48.916;2.336;2024-02-14T03:32:00;1.67;;;1.02;;
52972;SDS011;38837;48.916;2.336;2024-02-14T03:34:06;1.48;;;1.13;;
52972;SDS011;38837;48.916;2.336;2024-02-14T03:36:08;2.33;;;1.38;;
52972;SDS011;38837;48.916;2.336;2024-02-14T03:38:10;2.05;;;1.10;;
52972;SDS011;38837;48.916;2.336;2024-02-14T03:40:12;1.58;;;1.20;;
52972;SDS011;38837;48.916;2.336;2024-02-14T03:42:14;2.35;;;1.27;;
52972;SDS011;38837;48.916;2.336;2024-02-14T03:44:16;2.47;;;1.05;;
52972;SDS011;38837;48.916;2.336;2024-02-14T03:46:18;1.25;;;1.05;;
52972;SDS011;38837;48.916;2.336;2024-02-14T03:48:22;1.85;;;1.20;;
52972;SDS011;38837;48.916;2.336;2024-02-14T03:50:24;2.00;;;1.33;;
52972;SDS011;38837;48.916;2.336;2024-02-14T03:52:26;1.98;;;1.30;;
52972;SDS011;38837;48.916;2.336;2024-02-14T03:54:29;2.22;;;1.40;;
52972;SDS011;38837;48.916;2.336;2024-02-14T03:56:30;2.40;;;1.17;;
52972;SDS011;38837;48.916;2.336;2024-02-14T03:58:34;1.38;;;1.10;;
52972;SDS011;38837;48.916;2.336;2024-02-14T04:00:38;1.83;;;1.20;;
52972;SDS011;38837;48.916;2.336;2024-02-14T04:02:40;1.50;;;1.20;;
52972;SDS011;38837;48.916;2.336;2024-02-14T04:04:42;1.33;;;1.05;;
52972;SDS011;38837;48.916;2.336;2024-02-14T04:06:45;1.73;;;1.33;;
52972;SDS011;38837;48.916;2.336;2024-02-14T04:08:47;1.80;;;1.27;;
52972;SDS011;38837;48.916;2.336;2024-02-14T04:10:49;1.55;;;1.27;;
52972;SDS011;38837;48.916;2.336;2024-02-14T04:12:51;1.50;;;1.10;;
52972;SDS011;38837;48.916;2.336;2024-02-14T04:14:53;2.05;;;1.20;;
52972;SDS011;38837;48.916;2.336;2024-02-14T04:16:55;1.45;;;1.13;;
52972;SDS011;38837;48.916;2.336;2024-02-14T04:18:57;1.70;;;1.42;;
52972;SDS011;38837;48.916;2.336;2024-02-14T04:20:59;3.15;;;1.20;;
52972;SDS011;38837;48.916;2.336;2024-02-14T04:23:01;1.67;;;1.23;;
52972;SDS011;38837;48.916;2.336;2024-02-14T04:25:03;1.50;;;1.20;;
52972;SDS011;38837;48.916;2.336;2024-02-14T04:27:05;2.25;;;1.10;;
52972;SDS011;38837;48.916;2.336;2024-02-14T04:29:08;1.52;;;1.08;;
52972;SDS011;38837;48.916;2.336;2024-02-14T04:31:10;2.95;;;1.30;;
52972;SDS011;38837;48.916;2.336;2024-02-14T04:33:12;2.58;;;1.48;;
52972;SDS011;38837;48.916;2.336;2024-02-14T04:35:15;2.17;;;1.13;;
52972;SDS011;38837;48.916;2.336;2024-02-14T04:37:17;1.42;;;1.00;;
52972;SDS011;38837;48.916;2.336;2024-02-14T04:39:20;2.35;;;1.27;;
52972;SDS011;38837;48.916;2.336;2024-02-14T04:41:22;1.90;;;0.98;;
52972;SDS011;38837;48.916;2.336;2024-02-14T04:43:25;1.25;;;1.05;;
52972;SDS011;38837;48.916;2.336;2024-02-14T04:45:30;1.98;;;1.38;;
52972;SDS011;38837;48.916;2.336;2024-02-14T04:47:32;2.20;;;1.20;;
52972;SDS011;38837;48.916;2.336;2024-02-14T04:49:34;1.98;;;1.33;;
52972;SDS011;38837;48.916;2.336;2024-02-14T04:51:36;2.13;;;1.30;;
52972;SDS011;38837;48.916;2.336;2024-02-14T04:53:38;1.35;;;0.90;;
52972;SDS011;38837;48.916;2.336;2024-02-14T04:55:40;1.90;;;1.30;;
52972;SDS011;38837;48.916;2.336;2024-02-14T04:57:42;1.40;;;0.93;;
52972;SDS011;38837;48.916;2.336;2024-02-14T04:59:44;1.70;;;1.05;;
52972;SDS011;38837;48.916;2.336;2024-02-14T05:01:46;1.00;;;0.90;;
52972;SDS011;38837;48.916;2.336;2024-02-14T05:03:48;1.15;;;0.90;;
52972;SDS011;38837;48.916;2.336;2024-02-14T05:05:51;1.75;;;1.00;;
52972;SDS011;38837;48.916;2.336;2024-02-14T05:07:53;2.15;;;1.20;;
52972;SDS011;38837;48.916;2.336;2024-02-14T05:09:55;0.88;;;0.85;;
52972;SDS011;38837;48.916;2.336;2024-02-14T05:11:57;1.65;;;1.10;;
52972;SDS011;38837;48.916;2.336;2024-02-14T05:13:59;1.27;;;1.00;;
52972;SDS011;38837;48.916;2.336;2024-02-14T05:16:03;1.80;;;1.00;;
52972;SDS011;38837;48.916;2.336;2024-02-14T05:18:05;1.33;;;1.00;;
52972;SDS011;38837;48.916;2.336;2024-02-14T05:20:08;1.95;;;1.02;;
52972;SDS011;38837;48.916;2.336;2024-02-14T05:22:10;1.00;;;0.90;;
52972;SDS011;38837;48.916;2.336;2024-02-14T05:24:12;1.60;;;1.00;;
52972;SDS011;38837;48.916;2.336;2024-02-14T05:26:14;1.35;;;0.90;;
52972;SDS011;38837;48.916;2.336;2024-02-14T05:28:15;1.88;;;1.10;;
52972;SDS011;38837;48.916;2.336;2024-02-14T05:30:20;0.80;;;0.80;;
52972;SDS011;38837;48.916;2.336;2024-02-14T05:32:22;1.35;;;0.90;;
52972;SDS011;38837;48.916;2.336;2024-02-14T05:34:25;1.65;;;1.10;;
52972;SDS011;38837;48.916;2.336;2024-02-14T05:36:27;1.67;;;1.48;;
52972;SDS011;38837;48.916;2.336;2024-02-14T05:38:29;1.55;;;0.98;;
52972;SDS011;38837;48.916;2.336;2024-02-14T05:40:31;1.55;;;0.90;;
52972;SDS011;38837;48.916;2.336;2024-02-14T05:42:33;1.65;;;1.00;;
52972;SDS011;38837;48.916;2.336;2024-02-14T05:44:35;2.60;;;1.05;;
52972;SDS011;38837;48.916;2.336;2024-02-14T05:46:37;1.90;;;1.02;;
52972;SDS011;38837;48.916;2.336;2024-02-14T05:48:39;1.50;;;1.20;;
52972;SDS011;38837;48.916;2.336;2024-02-14T05:50:43;2.38;;;1.00;;
52972;SDS011;38837;48.916;2.336;2024-02-14T05:52:45;1.75;;;1.20;;
52972;SDS011;38837;48.916;2.336;2024-02-14T05:54:47;2.38;;;1.10;;
52972;SDS011;38837;48.916;2.336;2024-02-14T05:56:49;1.40;;;0.98;;
52972;SDS011;38837;48.916;2.336;2024-02-14T05:58:51;1.60;;;1.00;;
52972;SDS011;38837;48.916;2.336;2024-02-14T06:00:53;1.20;;;1.10;;
52972;SDS011;38837;48.916;2.336;2024-02-14T06:02:56;1.73;;;1.27;;
52972;SDS011;38837;48.916;2.336;2024-02-14T06:04:58;2.28;;;1.33;;
52972;SDS011;38837;48.916;2.336;2024-02-14T06:07:00;1.90;;;1.40;;
52972;SDS011;38837;48.916;2.336;2024-02-14T06:09:02;1.38;;;0.80;;
52972;SDS011;38837;48.916;2.336;2024-02-14T06:11:11;1.30;;;1.15;;
52972;SDS011;38837;48.916;2.336;2024-02-14T06:13:15;1.70;;;1.17;;
52972;SDS011;38837;48.916;2.336;2024-02-14T06:15:17;1.88;;;0.93;;
52972;SDS011;38837;48.916;2.336;2024-02-14T06:17:19;1.17;;;0.90;;
52972;SDS011;38837;48.916;2.336;2024-02-14T06:19:21;6.38;;;1.92;;
52972;SDS011;38837;48.916;2.336;2024-02-14T06:21:23;2.00;;;1.15;;
52972;SDS011;38837;48.916;2.336;2024-02-14T06:23:27;1.45;;;1.13;;
52972;SDS011;38837;48.916;2.336;2024-02-14T06:25:28;2.05;;;1.10;;
52972;SDS011;38837;48.916;2.336;2024-02-14T06:27:31;2.13;;;1.40;;
52972;SDS011;38837;48.916;2.336;2024-02-14T06:29:33;1.40;;;1.00;;
52972;SDS011;38837;48.916;2.336;2024-02-14T06:31:35;2.40;;;1.42;;
52972;SDS011;38837;48.916;2.336;2024-02-14T06:33:37;1.25;;;1.15;;
52972;SDS011;38837;48.916;2.336;2024-02-14T06:35:39;2.10;;;1.13;;
52972;SDS011;38837;48.916;2.336;2024-02-14T06:37:41;2.88;;;1.23;;
52972;SDS011;38837;48.916;2.336;2024-02-14T06:41:58;1.70;;;1.30;;
52972;SDS011;38837;48.916;2.336;2024-02-14T06:43:59;1.52;;;1.20;;
52972;SDS011;38837;48.916;2.336;2024-02-14T06:46:01;1.30;;;1.10;;
52972;SDS011;38837;48.916;2.336;2024-02-14T06:48:04;1.38;;;1.00;;
52972;SDS011;38837;48.916;2.336;2024-02-14T06:50:06;2.10;;;1.55;;
52972;SDS011;38837;48.916;2.336;2024-02-14T06:52:11;1.58;;;1.23;;
52972;SDS011;38837;48.916;2.336;2024-02-14T06:54:13;1.17;;;0.93;;
52972;SDS011;38837;48.916;2.336;2024-02-14T06:56:15;1.38;;;1.23;;
52972;SDS011;38837;48.916;2.336;2024-02-14T06:58:17;1.33;;;0.80;;
52972;SDS011;38837;48.916;2.336;2024-02-14T07:00:19;1.08;;;0.98;;
52972;SDS011;38837;48.916;2.336;2024-02-14T07:02:22;1.55;;;1.13;;
52972;SDS011;38837;48.916;2.336;2024-02-14T07:04:23;2.35;;;1.10;;
52972;SDS011;38837;48.916;2.336;2024-02-14T07:06:26;1.35;;;1.00;;
52972;SDS011;38837;48.916;2.336;2024-02-14T07:08:29;3.00;;;1.35;;
52972;SDS011;38837;48.916;2.336;2024-02-14T07:10:31;3.00;;;1.10;;
52972;SDS011;38837;48.916;2.336;2024-02-14T07:12:33;1.20;;;1.10;;
52972;SDS011;38837;48.916;2.336;2024-02-14T07:14:37;1.67;;;1.08;;
52972;SDS011;38837;48.916;2.336;2024-02-14T07:16:39;3.00;;;1.40;;
52972;SDS011;38837;48.916;2.336;2024-02-14T07:18:41;2.03;;;1.10;;
52972;SDS011;38837;48.916;2.336;2024-02-14T07:20:43;1.25;;;0.90;;
52972;SDS011;38837;48.916;2.336;2024-02-14T07:22:45;2.08;;;1.20;;
52972;SDS011;38837;48.916;2.336;2024-02-14T07:24:49;2.38;;;1.25;;
52972;SDS011;38837;48.916;2.336;2024-02-14T07:26:50;2.15;;;1.13;;
52972;SDS011;38837;48.916;2.336;2024-02-14T07:28:52;1.88;;;1.00;;
52972;SDS011;38837;48.916;2.336;2024-02-14T07:30:55;1.80;;;1.10;;
52972;SDS011;38837;48.916;2.336;2024-02-14T07:32:57;1.52;;;1.15;;
52972;SDS011;38837;48.916;2.336;2024-02-14T07:34:59;3.38;;;1.40;;
52972;SDS011;38837;48.916;2.336;2024-02-14T07:37:03;1.92;;;1.27;;
52972;SDS011;38837;48.916;2.336;2024-02-14T07:39:05;2.17;;;1.13;;
52972;SDS011;38837;48.916;2.336;2024-02-14T07:41:08;3.25;;;1.60;;
52972;SDS011;38837;48.916;2.336;2024-02-14T07:43:09;1.45;;;1.20;;
52972;SDS011;38837;48.916;2.336;2024-02-14T07:45:11;3.10;;;1.30;;
52972;SDS011;38837;48.916;2.336;2024-02-14T07:47:14;1.45;;;1.20;;
52972;SDS011;38837;48.916;2.336;2024-02-14T07:49:16;4.03;;;1.60;;
52972;SDS011;38837;48.916;2.336;2024-02-14T07:51:19;2.92;;;1.40;;
52972;SDS011;38837;48.916;2.336;2024-02-14T07:53:21;4.53;;;1.33;;
52972;SDS011;38837;48.916;2.336;2024-02-14T07:55:23;3.33;;;1.10;;
52972;SDS011;38837;48.916;2.336;2024-02-14T07:57:25;1.70;;;1.27;;
52972;SDS011;38837;48.916;2.336;2024-02-14T07:59:28;1.00;;;0.90;;
52972;SDS011;38837;48.916;2.336;2024-02-14T08:01:32;1.80;;;1.20;;
52972;SDS011;38837;48.916;2.336;2024-02-14T08:03:34;1.75;;;1.25;;
52972;SDS011;38837;48.916;2.336;2024-02-14T08:05:36;2.45;;;1.52;;
52972;SDS011;38837;48.916;2.336;2024-02-14T08:07:38;1.50;;;1.30;;
52972;SDS011;38837;48.916;2.336;2024-02-14T08:09:39;2.03;;;1.17;;
52972;SDS011;38837;48.916;2.336;2024-02-14T08:11:41;2.15;;;1.25;;
52972;SDS011;38837;48.916;2.336;2024-02-14T08:13:43;2.85;;;1.38;;
52972;SDS011;38837;48.916;2.336;2024-02-14T08:15:45;1.40;;;1.05;;
52972;SDS011;38837;48.916;2.336;2024-02-14T08:17:47;3.00;;;1.40;;
52972;SDS011;38837;48.916;2.336;2024-02-14T08:19:50;3.40;;;1.83;;
52972;SDS011;38837;48.916;2.336;2024-02-14T08:21:52;1.85;;;1.20;;
52972;SDS011;38837;48.916;2.336;2024-02-14T08:23:59;7.13;;;1.88;;
52972;SDS011;38837;48.916;2.336;2024-02-14T08:26:02;3.63;;;1.45;;
52972;SDS011;38837;48.916;2.336;2024-02-14T08:28:11;1.20;;;1.10;;
52972;SDS011;38837;48.916;2.336;2024-02-14T08:30:13;1.85;;;1.10;;
52972;SDS011;38837;48.916;2.336;2024-02-14T08:32:16;3.47;;;1.52;;
52972;SDS011;38837;48.916;2.336;2024-02-14T08:34:18;3.17;;;1.60;;
52972;SDS011;38837;48.916;2.336;2024-02-14T08:36:20;2.53;;;1.20;;
52972;SDS011;38837;48.916;2.336;2024-02-14T08:38:22;2.75;;;1.40;;
52972;SDS011;38837;48.916;2.336;2024-02-14T08:40:24;5.55;;;1.83;;
52972;SDS011;38837;48.916;2.336;2024-02-14T08:42:26;2.65;;;1.35;;
52972;SDS011;38837;48.916;2.336;2024-02-14T08:44:28;1.85;;;1.13;;
52972;SDS011;38837;48.916;2.336;2024-02-14T08:46:30;2.55;;;1.42;;
52972;SDS011;38837;48.916;2.336;2024-02-14T08:48:33;2.45;;;1.77;;
52972;SDS011;38837;48.916;2.336;2024-02-14T08:50:39;3.72;;;1.45;;
52972;SDS011;38837;48.916;2.336;2024-02-14T08:52:41;10.35;;;1.70;;
52972;SDS011;38837;48.916;2.336;2024-02-14T08:54:43;3.67;;;1.50;;
52972;SDS011;38837;48.916;2.336;2024-02-14T08:56:45;5.60;;;1.75;;
52972;SDS011;38837;48.916;2.336;2024-02-14T08:58:47;3.05;;;1.60;;
52972;SDS011;38837;48.916;2.336;2024-02-14T09:00:50;3.95;;;1.58;;
52972;SDS011;38837;48.916;2.336;2024-02-14T09:03:09;2.10;;;1.38;;
52972;SDS011;38837;48.916;2.336;2024-02-14T09:05:11;6.22;;;1.88;;
52972;SDS011;38837;48.916;2.336;2024-02-14T09:07:13;3.25;;;1.67;;
52972;SDS011;38837;48.916;2.336;2024-02-14T09:09:15;4.75;;;1.50;;
52972;SDS011;38837;48.916;2.336;2024-02-14T09:11:17;4.00;;;1.75;;
52972;SDS011;38837;48.916;2.336;2024-02-14T09:13:19;4.22;;;1.83;;
52972;SDS011;38837;48.916;2.336;2024-02-14T09:15:21;6.32;;;2.10;;
52972;SDS011;38837;48.916;2.336;2024-02-14T09:17:24;6.47;;;2.60;;
52972;SDS011;38837;48.916;2.336;2024-02-14T09:19:26;6.78;;;2.55;;
52972;SDS011;38837;48.916;2.336;2024-02-14T09:21:28;4.15;;;2.03;;
52972;SDS011;38837;48.916;2.336;2024-02-14T09:23:30;6.53;;;2.00;;
52972;SDS011;38837;48.916;2.336;2024-02-14T09:25:33;5.30;;;1.92;;
52972;SDS011;38837;48.916;2.336;2024-02-14T09:27:35;7.32;;;1.92;;
52972;SDS011;38837;48.916;2.336;2024-02-14T09:29:37;9.05;;;2.33;;
52972;SDS011;38837;48.916;2.336;2024-02-14T09:31:39;6.22;;;2.08;;
52972;SDS011;38837;48.916;2.336;2024-02-14T09:33:41;11.85;;;2.45;;
52972;SDS011;38837;48.916;2.336;2024-02-14T09:35:44;6.95;;;2.17;;
52972;SDS011;38837;48.916;2.336;2024-02-14T09:37:47;5.97;;;1.77;;
52972;SDS011;38837;48.916;2.336;2024-02-14T09:39:49;4.05;;;1.80;;
52972;SDS011;38837;48.916;2.336;2024-02-14T09:41:51;8.88;;;1.88;;
52972;SDS011;38837;48.916;2.336;2024-02-14T09:43:56;8.25;;;1.95;;
52972;SDS011;38837;48.916;2.336;2024-02-14T09:45:57;11.88;;;1.90;;
52972;SDS011;38837;48.916;2.336;2024-02-14T09:48:00;9.35;;;2.15;;
52972;SDS011;38837;48.916;2.336;2024-02-14T09:50:03;10.90;;;2.00;;
52972;SDS011;38837;48.916;2.336;2024-02-14T09:52:07;6.75;;;2.00;;
52972;SDS011;38837;48.916;2.336;2024-02-14T09:54:12;10.63;;;2.17;;
52972;SDS011;38837;48.916;2.336;2024-02-14T09:56:15;6.53;;;2.05;;
52972;SDS011;38837;48.916;2.336;2024-02-14T09:58:20;4.85;;;2.08;;
52972;SDS011;38837;48.916;2.336;2024-02-14T10:00:23;6.53;;;1.92;;
52972;SDS011;38837;48.916;2.336;2024-02-14T10:02:25;4.85;;;2.08;;
52972;SDS011;38837;48.916;2.336;2024-02-14T10:04:28;19.45;;;1.90;;
52972;SDS011;38837;48.916;2.336;2024-02-14T10:06:29;11.75;;;2.45;;
52972;SDS011;38837;48.916;2.336;2024-02-14T10:08:32;13.73;;;2.25;;
52972;SDS011;38837;48.916;2.336;2024-02-14T10:10:35;9.73;;;2.20;;
52972;SDS011;38837;48.916;2.336;2024-02-14T10:12:37;9.07;;;2.17;;
52972;SDS011;38837;48.916;2.336;2024-02-14T10:14:39;5.97;;;2.10;;
52972;SDS011;38837;48.916;2.336;2024-02-14T10:16:44;12.73;;;1.60;;
52972;SDS011;38837;48.916;2.336;2024-02-14T10:18:47;12.18;;;1.98;;
52972;SDS011;38837;48.916;2.336;2024-02-14T10:20:55;16.40;;;2.15;;
52972;SDS011;38837;48.916;2.336;2024-02-14T10:23:01;16.90;;;2.47;;
52972;SDS011;38837;48.916;2.336;2024-02-14T10:25:05;9.18;;;2.28;;
52972;SDS011;38837;48.916;2.336;2024-02-14T10:27:11;9.15;;;1.95;;
52972;SDS011;38837;48.916;2.336;2024-02-14T10:29:13;12.00;;;2.47;;
52972;SDS011;38837;48.916;2.336;2024-02-14T10:31:16;5.73;;;2.23;;
52972;SDS011;38837;48.916;2.336;2024-02-14T10:33:18;7.45;;;1.95;;
52972;SDS011;38837;48.916;2.336;2024-02-14T10:35:29;8.52;;;1.90;;
52972;SDS011;38837;48.916;2.336;2024-02-14T10:37:34;7.68;;;1.95;;
52972;SDS011;38837;48.916;2.336;2024-02-14T10:39:37;8.82;;;2.10;;
52972;SDS011;38837;48.916;2.336;2024-02-14T10:41:42;10.50;;;2.13;;
52972;SDS011;38837;48.916;2.336;2024-02-14T10:43:46;16.35;;;2.58;;
52972;SDS011;38837;48.916;2.336;2024-02-14T10:45:48;4.90;;;1.73;;
52972;SDS011;38837;48.916;2.336;2024-02-14T10:47:53;11.27;;;2.05;;
52972;SDS011;38837;48.916;2.336;2024-02-14T10:50:00;7.70;;;1.95;;
52972;SDS011;38837;48.916;2.336;2024-02-14T10:52:07;8.38;;;2.30;;
52972;SDS011;38837;48.916;2.336;2024-02-14T10:54:10;7.63;;;2.33;;
52972;SDS011;38837;48.916;2.336;2024-02-14T10:56:16;8.25;;;2.00;;
52972;SDS011;38837;48.916;2.336;2024-02-14T10:58:23;10.93;;;2.50;;
52972;SDS011;38837;48.916;2.336;2024-02-14T11:00:26;8.75;;;2.08;;
52972;SDS011;38837;48.916;2.336;2024-02-14T11:02:29;20.93;;;2.00;;
52972;SDS011;38837;48.916;2.336;2024-02-14T11:04:32;7.55;;;1.90;;
52972;SDS011;38837;48.916;2.336;2024-02-14T11:06:44;7.10;;;2.10;;
52972;SDS011;38837;48.916;2.336;2024-02-14T11:09:02;6.28;;;2.00;;
52972;SDS011;38837;48.916;2.336;2024-02-14T11:11:11;6.38;;;1.95;;
52972;SDS011;38837;48.916;2.336;2024-02-14T11:13:13;7.72;;;2.63;;
52972;SDS011;38837;48.916;2.336;2024-02-14T11:15:22;6.38;;;1.95;;
52972;SDS011;38837;48.916;2.336;2024-02-14T11:17:30;5.38;;;2.00;;
52972;SDS011;38837;48.916;2.336;2024-02-14T11:27:28;8.13;;;2.20;;
52972;SDS011;38837;48.916;2.336;2024-02-14T11:29:52;5.80;;;2.10;;
52972;SDS011;38837;48.916;2.336;2024-02-14T11:32:08;6.45;;;2.80;;
52972;SDS011;38837;48.916;2.336;2024-02-14T11:34:33;6.03;;;2.10;;
52972;SDS011;38837;48.916;2.336;2024-02-14T11:39:57;8.13;;;2.33;;
52972;SDS011;38837;48.916;2.336;2024-02-14T11:42:16;5.57;;;2.35;;
52972;SDS011;38837;48.916;2.336;2024-02-14T11:44:33;9.98;;;2.25;;
52972;SDS011;38837;48.916;2.336;2024-02-14T11:47:09;6.93;;;2.50;;
52972;SDS011;38837;48.916;2.336;2024-02-14T11:49:55;10.00;;;2.28;;
52972;SDS011;38837;48.916;2.336;2024-02-14T11:52:42;7.83;;;2.20;;
52972;SDS011;38837;48.916;2.336;2024-02-14T11:55:11;11.10;;;2.38;;
52972;SDS011;38837;48.916;2.336;2024-02-14T11:57:30;8.73;;;2.50;;
52972;SDS011;38837;48.916;2.336;2024-02-14T12:00:19;5.78;;;2.40;;
52972;SDS011;38837;48.916;2.336;2024-02-14T12:02:40;7.20;;;1.83;;
52972;SDS011;38837;48.916;2.336;2024-02-14T12:04:58;10.63;;;2.50;;
52972;SDS011;38837;48.916;2.336;2024-02-14T12:07:16;13.18;;;2.15;;
52972;SDS011;38837;48.916;2.336;2024-02-14T12:09:35;15.52;;;2.65;;
52972;SDS011;38837;48.916;2.336;2024-02-14T12:11:58;4.60;;;1.85;;
52972;SDS011;38837;48.916;2.336;2024-02-14T12:14:27;4.15;;;1.83;;
52972;SDS011;38837;48.916;2.336;2024-02-14T12:16:44;4.93;;;1.98;;
52972;SDS011;38837;48.916;2.336;2024-02-14T12:19:05;4.32;;;2.20;;
52972;SDS011;38837;48.916;2.336;2024-02-14T12:21:32;3.63;;;2.00;;
52972;SDS011;38837;48.916;2.336;2024-02-14T12:24:01;5.55;;;2.15;;
52972;SDS011;38837;48.916;2.336;2024-02-14T12:26:30;10.70;;;2.58;;
52972;SDS011;38837;48.916;2.336;2024-02-14T12:29:13;5.53;;;2.65;;
52972;SDS011;38837;48.916;2.336;2024-02-14T12:31:41;7.05;;;2.15;;
52972;SDS011;38837;48.916;2.336;2024-02-14T12:33:52;5.07;;;2.30;;
52972;SDS011;38837;48.916;2.336;2024-02-14T12:36:07;5.65;;;2.20;;
52972;SDS011;38837;48.916;2.336;2024-02-14T12:38:22;6.00;;;2.63;;
52972;SDS011;38837;48.916;2.336;2024-02-14T12:40:31;7.05;;;2.25;;
52972;SDS011;38837;48.916;2.336;2024-02-14T12:42:42;3.28;;;2.00;;
52972;SDS011;38837;48.916;2.336;2024-02-14T12:44:54;8.20;;;2.17;;
52972;SDS011;38837;48.916;2.336;2024-02-14T12:47:13;5.13;;;1.98;;